sensor_id;sensor_type;location;lat;lon;timestamp;P1;durP1;ratioP1;P2;durP2;ratioP2
33094;SDS011;19459;53.044;8.910;2022-08-21T08:09:15;5.18;;;1.20;;
33094;SDS011;19459;53.044;8.910;2022-08-21T08:11:42;1.38;;;1.10;;
33094;SDS011;19459;53.044;8.910;2022-08-21T08:14:08;1.15;;;0.80;;
33094;SDS011;19459;53.044;8.910;2022-08-21T08:24:26;14.23;;;3.40;;
33094;SDS011;19459;53.044;8.910;2022-08-21T08:26:52;9.18;;;3.35;;
33094;SDS011;19459;53.044;8.910;2022-08-21T08:29:19;6.93;;;2.75;;
33094;SDS011;19459;53.044;8.910;2022-08-21T08:31:47;12.13;;;2.88;;
33094;SDS011;19459;53.044;8.910;2022-08-21T08:34:13;3.80;;;2.15;;
33094;SDS011;19459;53.044;8.910;2022-08-21T08:36:38;13.88;;;2.97;;
33094;SDS011;19459;53.044;8.910;2022-08-21T08:39:04;8.13;;;2.47;;
33094;SDS011;19459;53.044;8.910;2022-08-21T08:41:31;4.15;;;1.40;;
33094;SDS011;19459;53.044;8.910;2022-08-21T08:44:00;6.88;;;2.15;;
33094;SDS011;19459;53.044;8.910;2022-08-21T08:46:46;8.73;;;2.78;;
33094;SDS011;19459;53.044;8.910;2022-08-21T08:52:02;5.15;;;2.00;;
33094;SDS011;19459;53.044;8.910;2022-08-21T08:54:50;8.68;;;2.03;;
33094;SDS011;19459;53.044;8.910;2022-08-21T08:57:45;7.38;;;2.55;;
33094;SDS011;19459;53.044;8.910;2022-08-21T09:00:18;8.93;;;2.35;;
33094;SDS011;19459;53.044;8.910;2022-08-21T09:02:46;13.95;;;2.58;;
33094;SDS011;19459;53.044;8.910;2022-08-21T09:05:24;6.18;;;2.33;;
33094;SDS011;19459;53.044;8.910;2022-08-21T09:09:22;7.43;;;2.40;;
33094;SDS011;19459;53.044;8.910;2022-08-21T09:14:20;7.43;;;1.80;;
33094;SDS011;19459;53.044;8.910;2022-08-21T09:17:19;7.22;;;3.30;;
33094;SDS011;19459;53.044;8.910;2022-08-21T09:29:43;8.30;;;2.88;;
33094;SDS011;19459;53.044;8.910;2022-08-21T09:34:55;8.75;;;2.80;;
33094;SDS011;19459;53.044;8.910;2022-08-21T09:37:47;8.45;;;2.53;;
33094;SDS011;19459;53.044;8.910;2022-08-21T09:43:10;10.98;;;2.53;;
33094;SDS011;19459;53.044;8.910;2022-08-21T09:46:00;10.85;;;2.95;;
33094;SDS011;19459;53.044;8.910;2022-08-21T09:48:47;8.70;;;2.55;;
33094;SDS011;19459;53.044;8.910;2022-08-21T09:51:17;10.43;;;2.65;;
33094;SDS011;19459;53.044;8.910;2022-08-21T09:53:55;7.40;;;2.40;;
33094;SDS011;19459;53.044;8.910;2022-08-21T09:56:38;8.82;;;2.78;;
33094;SDS011;19459;53.044;8.910;2022-08-21T09:59:37;13.38;;;2.90;;
33094;SDS011;19459;53.044;8.910;2022-08-21T10:04:59;9.23;;;3.05;;
33094;SDS011;19459;53.044;8.910;2022-08-21T10:07:40;11.02;;;2.53;;
33094;SDS011;19459;53.044;8.910;2022-08-21T10:18:41;7.80;;;2.95;;
33094;SDS011;19459;53.044;8.910;2022-08-21T10:21:26;8.25;;;2.78;;
33094;SDS011;19459;53.044;8.910;2022-08-21T10:32:02;5.95;;;2.55;;
33094;SDS011;19459;53.044;8.910;2022-08-21T10:55:41;5.28;;;2.40;;
33094;SDS011;19459;53.044;8.910;2022-08-21T10:58:29;11.17;;;2.13;;
33094;SDS011;19459;53.044;8.910;2022-08-21T11:01:13;9.35;;;2.20;;
33094;SDS011;19459;53.044;8.910;2022-08-21T11:07:04;6.68;;;2.28;;
33094;SDS011;19459;53.044;8.910;2022-08-21T11:09:50;4.60;;;1.70;;
33094;SDS011;19459;53.044;8.910;2022-08-21T11:17:22;5.72;;;2.05;;
33094;SDS011;19459;53.044;8.910;2022-08-21T11:23:17;6.03;;;1.90;;
33094;SDS011;19459;53.044;8.910;2022-08-21T11:26:23;6.28;;;2.70;;
33094;SDS011;19459;53.044;8.910;2022-08-21T11:29:07;3.17;;;1.75;;
33094;SDS011;19459;53.044;8.910;2022-08-21T11:32:25;5.78;;;2.20;;
33094;SDS011;19459;53.044;8.910;2022-08-21T11:46:00;5.18;;;2.00;;
33094;SDS011;19459;53.044;8.910;2022-08-21T12:02:38;5.78;;;2.17;;
33094;SDS011;19459;53.044;8.910;2022-08-21T12:05:22;5.63;;;1.85;;
33094;SDS011;19459;53.044;8.910;2022-08-21T12:16:47;5.70;;;1.90;;
33094;SDS011;19459;53.044;8.910;2022-08-21T12:21:51;4.97;;;1.90;;
33094;SDS011;19459;53.044;8.910;2022-08-21T12:24:37;7.70;;;2.00;;
33094;SDS011;19459;53.044;8.910;2022-08-21T12:30:05;4.85;;;2.03;;
33094;SDS011;19459;53.044;8.910;2022-08-21T12:32:55;6.00;;;2.28;;
33094;SDS011;19459;53.044;8.910;2022-08-21T12:38:15;8.40;;;2.53;;
33094;SDS011;19459;53.044;8.910;2022-08-21T12:40:53;6.88;;;2.08;;
33094;SDS011;19459;53.044;8.910;2022-08-21T12:43:29;8.80;;;1.70;;
33094;SDS011;19459;53.044;8.910;2022-08-21T12:46:00;6.20;;;1.92;;
33094;SDS011;19459;53.044;8.910;2022-08-21T12:51:11;4.60;;;1.63;;
33094;SDS011;19459;53.044;8.910;2022-08-21T12:56:18;6.13;;;2.05;;
33094;SDS011;19459;53.044;8.910;2022-08-21T12:58:51;6.43;;;1.52;;
33094;SDS011;19459;53.044;8.910;2022-08-21T13:04:08;6.40;;;1.80;;
33094;SDS011;19459;53.044;8.910;2022-08-21T13:06:43;5.00;;;2.22;;
33094;SDS011;19459;53.044;8.910;2022-08-21T13:09:17;5.38;;;2.00;;
33094;SDS011;19459;53.044;8.910;2022-08-21T13:11:51;5.35;;;1.83;;
33094;SDS011;19459;53.044;8.910;2022-08-21T13:14:30;6.75;;;1.75;;
33094;SDS011;19459;53.044;8.910;2022-08-21T13:17:03;5.40;;;1.98;;
33094;SDS011;19459;53.044;8.910;2022-08-21T13:19:32;4.88;;;2.13;;
33094;SDS011;19459;53.044;8.910;2022-08-21T13:21:59;12.57;;;3.08;;
33094;SDS011;19459;53.044;8.910;2022-08-21T13:24:30;7.07;;;2.95;;
33094;SDS011;19459;53.044;8.910;2022-08-21T13:27:02;4.82;;;2.30;;
33094;SDS011;19459;53.044;8.910;2022-08-21T13:29:32;5.35;;;2.10;;
33094;SDS011;19459;53.044;8.910;2022-08-21T13:32:02;5.50;;;2.28;;
33094;SDS011;19459;53.044;8.910;2022-08-21T13:34:36;5.75;;;1.73;;
33094;SDS011;19459;53.044;8.910;2022-08-21T13:37:07;5.32;;;1.88;;
33094;SDS011;19459;53.044;8.910;2022-08-21T13:39:36;4.78;;;2.05;;
33094;SDS011;19459;53.044;8.910;2022-08-21T13:42:04;7.63;;;2.00;;
33094;SDS011;19459;53.044;8.910;2022-08-21T13:44:40;6.80;;;2.55;;
33094;SDS011;19459;53.044;8.910;2022-08-21T13:47:10;5.72;;;1.58;;
33094;SDS011;19459;53.044;8.910;2022-08-21T13:49:41;3.63;;;1.70;;
33094;SDS011;19459;53.044;8.910;2022-08-21T13:52:19;6.72;;;1.80;;
33094;SDS011;19459;53.044;8.910;2022-08-21T13:54:58;5.72;;;1.95;;
33094;SDS011;19459;53.044;8.910;2022-08-21T13:57:34;8.23;;;2.50;;
33094;SDS011;19459;53.044;8.910;2022-08-21T14:02:45;5.63;;;2.47;;
33094;SDS011;19459;53.044;8.910;2022-08-21T14:05:19;5.97;;;1.83;;
33094;SDS011;19459;53.044;8.910;2022-08-21T14:07:50;3.03;;;1.73;;
33094;SDS011;19459;53.044;8.910;2022-08-21T14:10:30;6.13;;;2.25;;
33094;SDS011;19459;53.044;8.910;2022-08-21T14:13:04;5.60;;;1.88;;
33094;SDS011;19459;53.044;8.910;2022-08-21T14:15:33;3.47;;;1.90;;
33094;SDS011;19459;53.044;8.910;2022-08-21T14:18:08;6.70;;;2.38;;
33094;SDS011;19459;53.044;8.910;2022-08-21T14:20:43;5.95;;;2.05;;
33094;SDS011;19459;53.044;8.910;2022-08-21T14:23:09;6.82;;;1.67;;
33094;SDS011;19459;53.044;8.910;2022-08-21T14:25:41;5.45;;;1.90;;
33094;SDS011;19459;53.044;8.910;2022-08-21T14:28:18;6.53;;;2.38;;
33094;SDS011;19459;53.044;8.910;2022-08-21T14:30:52;5.60;;;2.00;;
33094;SDS011;19459;53.044;8.910;2022-08-21T14:33:28;8.32;;;1.83;;
33094;SDS011;19459;53.044;8.910;2022-08-21T14:35:57;8.13;;;1.63;;
33094;SDS011;19459;53.044;8.910;2022-08-21T14:38:25;7.45;;;2.20;;
33094;SDS011;19459;53.044;8.910;2022-08-21T14:40:54;5.05;;;2.00;;
33094;SDS011;19459;53.044;8.910;2022-08-21T14:43:25;4.07;;;1.80;;
33094;SDS011;19459;53.044;8.910;2022-08-21T14:45:52;6.47;;;2.05;;
33094;SDS011;19459;53.044;8.910;2022-08-21T14:48:19;5.38;;;2.03;;
33094;SDS011;19459;53.044;8.910;2022-08-21T14:50:45;5.50;;;2.22;;
33094;SDS011;19459;53.044;8.910;2022-08-21T14:53:12;7.53;;;1.98;;
33094;SDS011;19459;53.044;8.910;2022-08-21T14:55:38;8.45;;;2.40;;
33094;SDS011;19459;53.044;8.910;2022-08-21T14:58:24;8.80;;;2.15;;
33094;SDS011;19459;53.044;8.910;2022-08-21T15:00:51;10.32;;;2.22;;
33094;SDS011;19459;53.044;8.910;2022-08-21T15:03:18;4.80;;;2.20;;
33094;SDS011;19459;53.044;8.910;2022-08-21T15:05:46;6.47;;;2.03;;
33094;SDS011;19459;53.044;8.910;2022-08-21T15:08:13;6.50;;;1.95;;
33094;SDS011;19459;53.044;8.910;2022-08-21T15:10:39;6.25;;;2.20;;
33094;SDS011;19459;53.044;8.910;2022-08-21T15:13:05;6.03;;;2.00;;
33094;SDS011;19459;53.044;8.910;2022-08-21T15:15:42;4.65;;;2.30;;
33094;SDS011;19459;53.044;8.910;2022-08-21T15:18:11;3.88;;;2.00;;
33094;SDS011;19459;53.044;8.910;2022-08-21T15:20:39;6.90;;;2.65;;
33094;SDS011;19459;53.044;8.910;2022-08-21T15:23:07;8.18;;;2.38;;
33094;SDS011;19459;53.044;8.910;2022-08-21T15:25:45;6.40;;;2.25;;
33094;SDS011;19459;53.044;8.910;2022-08-21T15:28:40;5.43;;;2.00;;
33094;SDS011;19459;53.044;8.910;2022-08-21T15:31:08;4.90;;;2.60;;
33094;SDS011;19459;53.044;8.910;2022-08-21T15:33:34;5.65;;;1.70;;
33094;SDS011;19459;53.044;8.910;2022-08-21T15:36:00;6.18;;;2.25;;
33094;SDS011;19459;53.044;8.910;2022-08-21T15:38:26;5.18;;;1.95;;
33094;SDS011;19459;53.044;8.910;2022-08-21T15:40:51;4.80;;;2.30;;
33094;SDS011;19459;53.044;8.910;2022-08-21T15:43:26;4.90;;;1.80;;
33094;SDS011;19459;53.044;8.910;2022-08-21T15:46:19;3.55;;;1.85;;
33094;SDS011;19459;53.044;8.910;2022-08-21T15:48:47;6.22;;;2.30;;
33094;SDS011;19459;53.044;8.910;2022-08-21T15:51:14;7.13;;;1.92;;
33094;SDS011;19459;53.044;8.910;2022-08-21T15:53:41;8.35;;;2.28;;
33094;SDS011;19459;53.044;8.910;2022-08-21T15:56:14;4.53;;;2.20;;
33094;SDS011;19459;53.044;8.910;2022-08-21T15:58:57;10.25;;;2.20;;
33094;SDS011;19459;53.044;8.910;2022-08-21T16:01:33;7.55;;;2.35;;
33094;SDS011;19459;53.044;8.910;2022-08-21T16:04:00;3.17;;;2.08;;
33094;SDS011;19459;53.044;8.910;2022-08-21T16:06:28;3.72;;;1.80;;
33094;SDS011;19459;53.044;8.910;2022-08-21T16:08:54;6.70;;;2.30;;
33094;SDS011;19459;53.044;8.910;2022-08-21T16:11:20;6.32;;;2.28;;
33094;SDS011;19459;53.044;8.910;2022-08-21T16:13:46;5.10;;;2.05;;
33094;SDS011;19459;53.044;8.910;2022-08-21T16:16:15;9.75;;;2.35;;
33094;SDS011;19459;53.044;8.910;2022-08-21T16:18:45;6.30;;;2.00;;
33094;SDS011;19459;53.044;8.910;2022-08-21T16:21:12;5.40;;;2.13;;
33094;SDS011;19459;53.044;8.910;2022-08-21T16:23:39;6.72;;;2.78;;
33094;SDS011;19459;53.044;8.910;2022-08-21T16:26:06;4.65;;;2.15;;
33094;SDS011;19459;53.044;8.910;2022-08-21T16:28:36;5.88;;;1.92;;
33094;SDS011;19459;53.044;8.910;2022-08-21T16:31:03;5.60;;;2.28;;
33094;SDS011;19459;53.044;8.910;2022-08-21T16:33:43;8.32;;;1.75;;
33094;SDS011;19459;53.044;8.910;2022-08-21T16:36:15;4.93;;;2.08;;
33094;SDS011;19459;53.044;8.910;2022-08-21T16:38:41;4.95;;;1.77;;
33094;SDS011;19459;53.044;8.910;2022-08-21T16:41:10;5.05;;;1.98;;
33094;SDS011;19459;53.044;8.910;2022-08-21T16:43:41;7.95;;;2.10;;
33094;SDS011;19459;53.044;8.910;2022-08-21T16:46:08;4.03;;;1.77;;
33094;SDS011;19459;53.044;8.910;2022-08-21T16:48:37;5.40;;;1.80;;
33094;SDS011;19459;53.044;8.910;2022-08-21T16:51:04;11.23;;;1.95;;
33094;SDS011;19459;53.044;8.910;2022-08-21T16:53:31;5.35;;;2.67;;
33094;SDS011;19459;53.044;8.910;2022-08-21T16:55:57;7.85;;;2.10;;
33094;SDS011;19459;53.044;8.910;2022-08-21T16:58:25;7.78;;;1.95;;
33094;SDS011;19459;53.044;8.910;2022-08-21T17:00:57;4.18;;;2.05;;
33094;SDS011;19459;53.044;8.910;2022-08-21T17:03:27;6.25;;;2.80;;
33094;SDS011;19459;53.044;8.910;2022-08-21T17:06:05;6.15;;;2.03;;
33094;SDS011;19459;53.044;8.910;2022-08-21T17:08:31;5.80;;;2.40;;
33094;SDS011;19459;53.044;8.910;2022-08-21T17:10:57;5.35;;;1.85;;
33094;SDS011;19459;53.044;8.910;2022-08-21T17:13:25;8.70;;;2.30;;
33094;SDS011;19459;53.044;8.910;2022-08-21T17:15:52;5.38;;;1.83;;
33094;SDS011;19459;53.044;8.910;2022-08-21T17:18:19;5.38;;;2.08;;
33094;SDS011;19459;53.044;8.910;2022-08-21T17:20:47;6.75;;;2.65;;
33094;SDS011;19459;53.044;8.910;2022-08-21T17:23:14;3.53;;;1.98;;
33094;SDS011;19459;53.044;8.910;2022-08-21T17:25:42;3.22;;;1.50;;
33094;SDS011;19459;53.044;8.910;2022-08-21T17:28:13;6.78;;;2.00;;
33094;SDS011;19459;53.044;8.910;2022-08-21T17:30:49;3.67;;;2.28;;
33094;SDS011;19459;53.044;8.910;2022-08-21T17:33:19;5.03;;;1.92;;
33094;SDS011;19459;53.044;8.910;2022-08-21T17:35:45;4.43;;;1.95;;
33094;SDS011;19459;53.044;8.910;2022-08-21T17:38:12;3.58;;;1.80;;
33094;SDS011;19459;53.044;8.910;2022-08-21T17:40:39;11.07;;;2.20;;
33094;SDS011;19459;53.044;8.910;2022-08-21T17:43:07;7.05;;;2.08;;
33094;SDS011;19459;53.044;8.910;2022-08-21T17:45:34;6.82;;;2.55;;
33094;SDS011;19459;53.044;8.910;2022-08-21T17:48:00;12.50;;;2.88;;
33094;SDS011;19459;53.044;8.910;2022-08-21T17:50:26;7.80;;;2.33;;
33094;SDS011;19459;53.044;8.910;2022-08-21T17:52:52;8.27;;;2.25;;
33094;SDS011;19459;53.044;8.910;2022-08-21T17:55:18;6.68;;;2.90;;
33094;SDS011;19459;53.044;8.910;2022-08-21T17:57:46;12.52;;;3.13;;
33094;SDS011;19459;53.044;8.910;2022-08-21T18:00:15;15.23;;;3.33;;
33094;SDS011;19459;53.044;8.910;2022-08-21T18:02:44;7.93;;;2.70;;
33094;SDS011;19459;53.044;8.910;2022-08-21T18:05:15;12.15;;;3.58;;
33094;SDS011;19459;53.044;8.910;2022-08-21T18:07:41;12.73;;;2.70;;
33094;SDS011;19459;53.044;8.910;2022-08-21T18:10:09;9.80;;;2.72;;
33094;SDS011;19459;53.044;8.910;2022-08-21T18:12:37;10.90;;;3.25;;
33094;SDS011;19459;53.044;8.910;2022-08-21T18:15:06;10.38;;;2.80;;
33094;SDS011;19459;53.044;8.910;2022-08-21T18:17:34;10.48;;;3.50;;
33094;SDS011;19459;53.044;8.910;2022-08-21T18:20:01;12.80;;;3.10;;
33094;SDS011;19459;53.044;8.910;2022-08-21T18:22:31;11.52;;;3.13;;
33094;SDS011;19459;53.044;8.910;2022-08-21T18:24:59;8.02;;;2.53;;
33094;SDS011;19459;53.044;8.910;2022-08-21T18:27:25;8.45;;;3.05;;
33094;SDS011;19459;53.044;8.910;2022-08-21T18:29:51;8.00;;;2.78;;
33094;SDS011;19459;53.044;8.910;2022-08-21T18:32:21;8.82;;;3.85;;
33094;SDS011;19459;53.044;8.910;2022-08-21T18:34:49;11.52;;;3.22;;
33094;SDS011;19459;53.044;8.910;2022-08-21T18:37:16;15.30;;;4.43;;
33094;SDS011;19459;53.044;8.910;2022-08-21T18:39:42;18.95;;;4.00;;
33094;SDS011;19459;53.044;8.910;2022-08-21T18:42:09;10.63;;;3.63;;
33094;SDS011;19459;53.044;8.910;2022-08-21T18:44:38;8.00;;;3.10;;
33094;SDS011;19459;53.044;8.910;2022-08-21T18:47:10;7.72;;;2.83;;
33094;SDS011;19459;53.044;8.910;2022-08-21T18:49:52;8.10;;;3.20;;
33094;SDS011;19459;53.044;8.910;2022-08-21T18:52:18;9.23;;;2.60;;
33094;SDS011;19459;53.044;8.910;2022-08-21T18:54:44;9.60;;;3.05;;
33094;SDS011;19459;53.044;8.910;2022-08-21T18:57:11;10.13;;;2.75;;
33094;SDS011;19459;53.044;8.910;2022-08-21T18:59:38;7.90;;;2.72;;
33094;SDS011;19459;53.044;8.910;2022-08-21T19:02:06;11.85;;;2.83;;
33094;SDS011;19459;53.044;8.910;2022-08-21T19:04:33;10.45;;;3.10;;
33094;SDS011;19459;53.044;8.910;2022-08-21T19:07:00;11.20;;;3.00;;
33094;SDS011;19459;53.044;8.910;2022-08-21T19:09:27;10.05;;;3.17;;
33094;SDS011;19459;53.044;8.910;2022-08-21T19:11:56;11.00;;;2.90;;
33094;SDS011;19459;53.044;8.910;2022-08-21T19:14:22;9.82;;;2.30;;
33094;SDS011;19459;53.044;8.910;2022-08-21T19:16:48;8.20;;;2.95;;
33094;SDS011;19459;53.044;8.910;2022-08-21T19:19:15;8.98;;;2.65;;
33094;SDS011;19459;53.044;8.910;2022-08-21T19:21:42;7.72;;;3.10;;
33094;SDS011;19459;53.044;8.910;2022-08-21T19:24:08;9.52;;;3.00;;
33094;SDS011;19459;53.044;8.910;2022-08-21T19:26:34;9.55;;;2.92;;
33094;SDS011;19459;53.044;8.910;2022-08-21T19:29:04;13.65;;;4.88;;
33094;SDS011;19459;53.044;8.910;2022-08-21T19:31:34;11.45;;;3.25;;
33094;SDS011;19459;53.044;8.910;2022-08-21T19:34:07;11.23;;;2.92;;
33094;SDS011;19459;53.044;8.910;2022-08-21T19:36:42;11.57;;;3.10;;
33094;SDS011;19459;53.044;8.910;2022-08-21T19:39:09;12.70;;;4.13;;
33094;SDS011;19459;53.044;8.910;2022-08-21T19:41:38;9.65;;;2.58;;
33094;SDS011;19459;53.044;8.910;2022-08-21T19:44:09;9.80;;;2.60;;
33094;SDS011;19459;53.044;8.910;2022-08-21T19:46:40;10.48;;;2.80;;
33094;SDS011;19459;53.044;8.910;2022-08-21T19:49:29;13.52;;;3.40;;
33094;SDS011;19459;53.044;8.910;2022-08-21T19:51:58;10.07;;;2.80;;
33094;SDS011;19459;53.044;8.910;2022-08-21T19:54:28;9.98;;;2.85;;
33094;SDS011;19459;53.044;8.910;2022-08-21T19:56:57;6.80;;;2.63;;
33094;SDS011;19459;53.044;8.910;2022-08-21T19:59:30;9.27;;;2.55;;
33094;SDS011;19459;53.044;8.910;2022-08-21T20:01:59;12.73;;;3.03;;
33094;SDS011;19459;53.044;8.910;2022-08-21T20:04:25;8.43;;;2.92;;
33094;SDS011;19459;53.044;8.910;2022-08-21T20:06:52;8.07;;;2.75;;
33094;SDS011;19459;53.044;8.910;2022-08-21T20:09:19;12.23;;;2.88;;
33094;SDS011;19459;53.044;8.910;2022-08-21T20:11:48;8.10;;;3.00;;
33094;SDS011;19459;53.044;8.910;2022-08-21T20:14:22;12.02;;;2.97;;
33094;SDS011;19459;53.044;8.910;2022-08-21T20:16:53;11.75;;;3.13;;
33094;SDS011;19459;53.044;8.910;2022-08-21T20:19:20;8.77;;;2.70;;
33094;SDS011;19459;53.044;8.910;2022-08-21T20:21:47;8.43;;;2.72;;
33094;SDS011;19459;53.044;8.910;2022-08-21T20:24:13;5.20;;;2.22;;
33094;SDS011;19459;53.044;8.910;2022-08-21T20:26:41;12.02;;;2.40;;
33094;SDS011;19459;53.044;8.910;2022-08-21T20:29:08;10.35;;;2.08;;
33094;SDS011;19459;53.044;8.910;2022-08-21T20:31:34;9.55;;;3.08;;
33094;SDS011;19459;53.044;8.910;2022-08-21T20:34:00;8.15;;;2.55;;
33094;SDS011;19459;53.044;8.910;2022-08-21T20:36:26;9.05;;;2.47;;
33094;SDS011;19459;53.044;8.910;2022-08-21T20:38:52;5.28;;;2.50;;
33094;SDS011;19459;53.044;8.910;2022-08-21T20:41:18;6.32;;;2.22;;
33094;SDS011;19459;53.044;8.910;2022-08-21T20:43:47;9.63;;;3.00;;
33094;SDS011;19459;53.044;8.910;2022-08-21T20:46:15;12.50;;;3.30;;
33094;SDS011;19459;53.044;8.910;2022-08-21T20:48:47;11.70;;;2.90;;
33094;SDS011;19459;53.044;8.910;2022-08-21T20:51:26;7.10;;;2.50;;
33094;SDS011;19459;53.044;8.910;2022-08-21T20:59:57;11.73;;;3.10;;
33094;SDS011;19459;53.044;8.910;2022-08-21T21:02:47;7.65;;;2.50;;
33094;SDS011;19459;53.044;8.910;2022-08-21T21:05:52;10.40;;;2.40;;
33094;SDS011;19459;53.044;8.910;2022-08-21T21:08:47;3.83;;;2.30;;
33094;SDS011;19459;53.044;8.910;2022-08-21T21:11:40;17.92;;;3.15;;
33094;SDS011;19459;53.044;8.910;2022-08-21T21:14:16;6.05;;;2.08;;
33094;SDS011;19459;53.044;8.910;2022-08-21T21:16:51;10.65;;;3.45;;
33094;SDS011;19459;53.044;8.910;2022-08-21T21:19:28;6.57;;;2.85;;
33094;SDS011;19459;53.044;8.910;2022-08-21T21:24:59;11.40;;;2.65;;
33094;SDS011;19459;53.044;8.910;2022-08-21T21:27:43;10.05;;;2.80;;
33094;SDS011;19459;53.044;8.910;2022-08-21T21:33:08;9.43;;;3.35;;
33094;SDS011;19459;53.044;8.910;2022-08-21T21:35:39;11.52;;;2.65;;
33094;SDS011;19459;53.044;8.910;2022-08-21T21:39:19;7.65;;;3.00;;
33094;SDS011;19459;53.044;8.910;2022-08-21T21:42:07;8.57;;;3.08;;
33094;SDS011;19459;53.044;8.910;2022-08-21T21:56:07;9.60;;;3.20;;
33094;SDS011;19459;53.044;8.910;2022-08-21T22:15:05;11.18;;;3.63;;
33094;SDS011;19459;53.044;8.910;2022-08-21T22:20:04;10.38;;;4.43;;
33094;SDS011;19459;53.044;8.910;2022-08-21T22:25:11;9.73;;;2.65;;
33094;SDS011;19459;53.044;8.910;2022-08-21T22:27:48;11.43;;;3.38;;
33094;SDS011;19459;53.044;8.910;2022-08-21T22:30:39;8.50;;;2.70;;
33094;SDS011;19459;53.044;8.910;2022-08-21T22:33:12;12.32;;;2.78;;
33094;SDS011;19459;53.044;8.910;2022-08-21T22:35:51;7.65;;;3.33;;
33094;SDS011;19459;53.044;8.910;2022-08-21T22:38:33;9.45;;;3.10;;
33094;SDS011;19459;53.044;8.910;2022-08-21T22:43:36;12.65;;;3.38;;
33094;SDS011;19459;53.044;8.910;2022-08-21T22:46:27;7.55;;;3.28;;
33094;SDS011;19459;53.044;8.910;2022-08-21T22:54:44;10.38;;;3.03;;
33094;SDS011;19459;53.044;8.910;2022-08-21T22:57:21;13.75;;;3.72;;
33094;SDS011;19459;53.044;8.910;2022-08-21T23:02:38;13.80;;;3.88;;
33094;SDS011;19459;53.044;8.910;2022-08-21T23:07:51;8.05;;;3.30;;
33094;SDS011;19459;53.044;8.910;2022-08-21T23:13:04;11.23;;;3.95;;
33094;SDS011;19459;53.044;8.910;2022-08-21T23:15:34;10.95;;;3.40;;
33094;SDS011;19459;53.044;8.910;2022-08-21T23:18:32;9.00;;;3.15;;
33094;SDS011;19459;53.044;8.910;2022-08-21T23:27:29;10.18;;;3.60;;
33094;SDS011;19459;53.044;8.910;2022-08-21T23:51:39;11.77;;;3.10;;
